Time;durP1;ratioP1;P1;durP2;ratioP2;P2;SDS_P1;SDS_P2;PMS_P1;PMS_P2;Temp;Humidity;BMP_temperature;BMP_pressure;BME280_temperature;BME280_humidity;BME280_pressure;Samples;Min_cycle;Max_cycle;Signal;HPM_P1;HPM_P2
2020/12/21 00:01:04;;;;;;;27.07;24.43;;;;;;;;;;4977450;28;20223;-92
2020/12/21 00:03:33;;;;;;;29.53;26.27;;;;;;;;;;4976130;28;20180;-91
2020/12/21 00:06:01;;;;;;;30.23;26.20;;;;;;;;;;4976228;28;20570;-90
2020/12/21 00:08:31;;;;;;;29.43;25.83;;;;;;;;;;4975432;28;20234;-91
2020/12/21 00:10:57;;;;;;;28.30;25.27;;;;;;;;;;4975288;28;20256;-91
2020/12/21 00:13:24;;;;;;;31.30;25.47;;;;;;;;;;4975719;28;20184;-91
2020/12/21 00:15:55;;;;;;;28.67;25.40;;;;;;;;;;4975237;28;20231;-91
2020/12/21 00:18:29;;;;;;;28.40;25.50;;;;;;;;;;4976648;28;20216;-91
2020/12/21 00:21:05;;;;;;;29.47;26.47;;;;;;;;;;4975598;28;20627;-91
2020/12/21 00:23:38;;;;;;;28.60;25.27;;;;;;;;;;4975927;28;20212;-92
2020/12/21 00:26:11;;;;;;;30.03;26.87;;;;;;;;;;4977989;28;20235;-92
2020/12/21 00:28:42;;;;;;;29.23;26.10;;;;;;;;;;4976290;28;20179;-92
2020/12/21 00:31:08;;;;;;;32.17;26.47;;;;;;;;;;4976042;28;20219;-93
2020/12/21 00:33:40;;;;;;;27.37;24.57;;;;;;;;;;4976759;28;20599;-92
2020/12/21 00:36:15;;;;;;;29.60;26.53;;;;;;;;;;4977223;28;20230;-92
2020/12/21 00:38:41;;;;;;;28.90;25.20;;;;;;;;;;4977002;28;20182;-92
2020/12/21 00:41:19;;;;;;;36.27;27.40;;;;;;;;;;4975718;28;20631;-92
2020/12/21 00:43:52;;;;;;;29.97;26.93;;;;;;;;;;4975048;28;20179;-92
2020/12/21 00:46:26;;;;;;;29.37;26.67;;;;;;;;;;4975447;28;20183;-92
2020/12/21 00:48:59;;;;;;;31.93;26.47;;;;;;;;;;4975579;28;20182;-92
2020/12/21 00:51:34;;;;;;;31.03;26.63;;;;;;;;;;4974571;28;20198;-90
2020/12/21 00:54:05;;;;;;;30.80;25.50;;;;;;;;;;4974776;28;20182;-91
2020/12/21 00:56:33;;;;;;;28.20;25.30;;;;;;;;;;4975108;28;20187;-90
2020/12/21 00:59:06;;;;;;;28.23;25.10;;;;;;;;;;4974661;28;20202;-90
2020/12/21 01:01:39;;;;;;;28.90;25.80;;;;;;;;;;4975412;28;20194;-91
2020/12/21 01:04:05;;;;;;;30.43;26.93;;;;;;;;;;4974875;28;20179;-92
2020/12/21 01:06:33;;;;;;;28.70;26.03;;;;;;;;;;4976484;28;20210;-91
2020/12/21 01:09:00;;;;;;;32.10;27.10;;;;;;;;;;4977796;28;20194;-89
2020/12/21 01:11:30;;;;;;;32.60;25.37;;;;;;;;;;4975422;28;20217;-90
2020/12/21 01:14:01;;;;;;;28.90;25.83;;;;;;;;;;4974819;28;20175;-88
2020/12/21 01:16:31;;;;;;;30.13;25.47;;;;;;;;;;4975500;28;20624;-90
2020/12/21 01:19:03;;;;;;;26.10;23.50;;;;;;;;;;4973659;28;20184;-89
2020/12/21 01:21:31;;;;;;;29.93;26.87;;;;;;;;;;4974711;28;20208;-89
2020/12/21 01:23:59;;;;;;;29.70;24.50;;;;;;;;;;4973931;28;20613;-89
2020/12/21 01:26:30;;;;;;;26.60;24.13;;;;;;;;;;4973752;28;20189;-89
2020/12/21 01:29:02;;;;;;;27.30;24.57;;;;;;;;;;4973920;28;20273;-89
2020/12/21 01:31:30;;;;;;;29.27;26.13;;;;;;;;;;4973357;28;20253;-89
2020/12/21 01:34:03;;;;;;;29.40;26.43;;;;;;;;;;4973395;28;20270;-89
2020/12/21 01:36:34;;;;;;;29.63;26.47;;;;;;;;;;4973875;28;20206;-89
2020/12/21 01:39:04;;;;;;;27.67;25.13;;;;;;;;;;4973511;28;20617;-89
2020/12/21 01:41:36;;;;;;;28.57;25.80;;;;;;;;;;4973570;28;20231;-89
2020/12/21 01:44:08;;;;;;;29.47;26.10;;;;;;;;;;4973262;28;20191;-89
2020/12/21 01:46:41;;;;;;;27.73;25.13;;;;;;;;;;4973462;28;20547;-89
2020/12/21 01:49:07;;;;;;;28.60;25.67;;;;;;;;;;4973282;28;20238;-89
2020/12/21 01:51:37;;;;;;;30.10;27.03;;;;;;;;;;4973163;28;20631;-89
2020/12/21 01:54:08;;;;;;;27.23;24.90;;;;;;;;;;4973511;28;20179;-89
2020/12/21 01:56:38;;;;;;;28.37;25.60;;;;;;;;;;4974500;28;20188;-89
2020/12/21 01:59:09;;;;;;;27.60;24.73;;;;;;;;;;4977157;28;20554;-89
2020/12/21 02:01:38;;;;;;;26.33;23.70;;;;;;;;;;4977196;28;20208;-89
2020/12/21 02:04:05;;;;;;;26.37;24.07;;;;;;;;;;4977202;28;20187;-89
2020/12/21 02:06:38;;;;;;;22.30;20.30;;;;;;;;;;4977135;28;20241;-89
2020/12/21 02:09:07;;;;;;;24.90;22.73;;;;;;;;;;4977408;28;20643;-88
2020/12/21 02:11:39;;;;;;;26.47;22.30;;;;;;;;;;4976825;28;20212;-89
2020/12/21 02:14:05;;;;;;;23.07;20.93;;;;;;;;;;4978187;28;20175;-89
2020/12/21 02:16:32;;;;;;;23.70;21.80;;;;;;;;;;4977246;28;20187;-89
2020/12/21 02:18:58;;;;;;;23.97;21.87;;;;;;;;;;4978355;28;20173;-89
2020/12/21 02:21:25;;;;;;;24.13;21.53;;;;;;;;;;4977059;28;20284;-89
2020/12/21 02:23:51;;;;;;;22.37;20.40;;;;;;;;;;4977165;28;20272;-89
2020/12/21 02:26:17;;;;;;;23.50;21.40;;;;;;;;;;4976699;28;20274;-89
2020/12/21 02:28:44;;;;;;;26.07;22.50;;;;;;;;;;4977943;28;20175;-89
2020/12/21 02:31:11;;;;;;;23.83;21.33;;;;;;;;;;4976625;28;20223;-89
2020/12/21 02:33:44;;;;;;;23.27;20.67;;;;;;;;;;4976632;28;20205;-89
2020/12/21 02:36:11;;;;;;;25.90;23.63;;;;;;;;;;4977319;28;20181;-90
2020/12/21 02:38:43;;;;;;;23.80;22.00;;;;;;;;;;4976563;28;20187;-89
2020/12/21 02:41:12;;;;;;;25.87;22.57;;;;;;;;;;4976535;28;20209;-89
2020/12/21 02:43:39;;;;;;;22.60;20.50;;;;;;;;;;4976481;28;20185;-89
2020/12/21 02:46:09;;;;;;;21.97;19.87;;;;;;;;;;4976343;28;20181;-89
2020/12/21 02:48:35;;;;;;;19.87;18.13;;;;;;;;;;4976402;28;20199;-89
2020/12/21 02:51:01;;;;;;;20.83;18.80;;;;;;;;;;4976585;28;20730;-89
2020/12/21 02:53:27;;;;;;;24.23;19.13;;;;;;;;;;4976390;28;20195;-89
2020/12/21 02:55:54;;;;;;;21.50;19.27;;;;;;;;;;4977325;28;20645;-89
2020/12/21 02:58:20;;;;;;;19.20;17.33;;;;;;;;;;4976163;28;20191;-89
2020/12/21 03:00:46;;;;;;;28.87;17.90;;;;;;;;;;4977361;28;20201;-89
2020/12/21 03:03:19;;;;;;;18.10;16.70;;;;;;;;;;4976276;28;20550;-89
2020/12/21 03:05:48;;;;;;;21.53;19.30;;;;;;;;;;4976302;28;20187;-89
2020/12/21 03:08:18;;;;;;;20.27;18.33;;;;;;;;;;4975394;28;20181;-89
2020/12/21 03:10:45;;;;;;;19.00;17.30;;;;;;;;;;4977105;28;20549;-89
2020/12/21 03:13:17;;;;;;;17.70;16.07;;;;;;;;;;4977114;28;20214;-89
2020/12/21 03:15:43;;;;;;;18.23;16.43;;;;;;;;;;4975924;28;20178;-88
2020/12/21 03:18:09;;;;;;;20.83;18.70;;;;;;;;;;4975931;28;20196;-89
2020/12/21 03:20:41;;;;;;;24.30;18.73;;;;;;;;;;4977152;28;20209;-89
2020/12/21 03:23:07;;;;;;;18.30;16.70;;;;;;;;;;4976964;28;20183;-89
2020/12/21 03:25:40;;;;;;;18.93;16.93;;;;;;;;;;4975771;28;20212;-89
2020/12/21 03:28:07;;;;;;;20.57;18.50;;;;;;;;;;4977178;28;20177;-89
2020/12/21 03:30:39;;;;;;;23.90;18.20;;;;;;;;;;5002109;23;20251;-89
2020/12/21 03:33:11;;;;;;;19.97;18.20;;;;;;;;;;4996256;28;20220;-89
2020/12/21 03:35:41;;;;;;;19.00;17.40;;;;;;;;;;4995146;28;20601;-89
2020/12/21 03:38:14;;;;;;;20.33;18.50;;;;;;;;;;4994741;28;20265;-89
2020/12/21 03:40:49;;;;;;;22.33;18.57;;;;;;;;;;4995037;28;20199;-89
2020/12/21 03:43:19;;;;;;;20.50;18.53;;;;;;;;;;4995432;28;20542;-90
2020/12/21 03:45:49;;;;;;;23.13;19.30;;;;;;;;;;4996020;28;20173;-89
2020/12/21 03:48:16;;;;;;;22.20;18.50;;;;;;;;;;4996314;28;20168;-89
2020/12/21 03:50:48;;;;;;;23.87;19.27;;;;;;;;;;4994630;28;20231;-89
2020/12/21 03:53:21;;;;;;;20.87;18.77;;;;;;;;;;4994467;28;20206;-89
2020/12/21 03:55:55;;;;;;;20.73;18.80;;;;;;;;;;4995390;28;20184;-89
2020/12/21 03:58:25;;;;;;;21.07;18.97;;;;;;;;;;4994851;28;20176;-89
2020/12/21 04:00:51;;;;;;;21.37;19.00;;;;;;;;;;4994347;28;20195;-89
2020/12/21 04:03:24;;;;;;;23.53;19.77;;;;;;;;;;4994448;28;20573;-89
2020/12/21 04:05:55;;;;;;;20.87;18.63;;;;;;;;;;4994587;28;20183;-89
2020/12/21 04:08:25;;;;;;;23.40;18.97;;;;;;;;;;4994347;28;20179;-89
2020/12/21 04:11:01;;;;;;;19.67;17.20;;;;;;;;;;4994313;28;20205;-89
2020/12/21 04:13:37;;;;;;;20.67;17.33;;;;;;;;;;4994224;28;20208;-89
2020/12/21 04:16:11;;;;;;;19.43;17.70;;;;;;;;;;4994361;28;20555;-89
2020/12/21 04:18:45;;;;;;;19.57;17.87;;;;;;;;;;4994385;28;20259;-89
2020/12/21 04:21:18;;;;;;;21.43;18.73;;;;;;;;;;4994116;28;20330;-89
2020/12/21 04:23:55;;;;;;;21.40;19.10;;;;;;;;;;4994097;28;20202;-89
2020/12/21 04:26:21;;;;;;;19.47;17.67;;;;;;;;;;4994476;28;20179;-89
2020/12/21 04:28:54;;;;;;;18.60;17.00;;;;;;;;;;4993983;28;20266;-89
2020/12/21 04:31:26;;;;;;;28.93;19.37;;;;;;;;;;4993618;28;20578;-89
2020/12/21 04:33:58;;;;;;;19.60;17.67;;;;;;;;;;4993849;28;20164;-89
2020/12/21 04:36:27;;;;;;;21.03;18.57;;;;;;;;;;4993953;28;20178;-89
2020/12/21 04:38:59;;;;;;;20.93;17.50;;;;;;;;;;4995291;28;20179;-89
2020/12/21 04:41:30;;;;;;;20.80;18.37;;;;;;;;;;4993657;28;20197;-89
2020/12/21 04:43:57;;;;;;;25.47;18.57;;;;;;;;;;4993656;28;20178;-89
2020/12/21 04:46:29;;;;;;;19.73;17.67;;;;;;;;;;4993689;28;20532;-89
2020/12/21 04:49:01;;;;;;;22.33;18.83;;;;;;;;;;4995026;28;20178;-89
2020/12/21 04:51:39;;;;;;;26.50;19.83;;;;;;;;;;4993441;28;20201;-89
2020/12/21 04:54:11;;;;;;;22.60;17.77;;;;;;;;;;4993580;28;20258;-90
2020/12/21 04:56:50;;;;;;;22.70;19.20;;;;;;;;;;4993472;28;20237;-89
2020/12/21 04:59:21;;;;;;;21.73;19.43;;;;;;;;;;4994696;28;20168;-89
2020/12/21 05:01:47;;;;;;;24.00;18.87;;;;;;;;;;4994430;28;20232;-89
2020/12/21 05:04:17;;;;;;;24.50;20.27;;;;;;;;;;4993334;28;20656;-89
2020/12/21 05:06:56;;;;;;;21.63;19.47;;;;;;;;;;4994514;28;20592;-89
2020/12/21 05:09:28;;;;;;;22.83;19.37;;;;;;;;;;4994446;28;20175;-89
2020/12/21 05:11:54;;;;;;;20.90;18.90;;;;;;;;;;4994227;28;20681;-89
2020/12/21 05:14:31;;;;;;;21.67;19.53;;;;;;;;;;4994247;28;20230;-89
2020/12/21 05:17:21;;;;;;;27.37;19.90;;;;;;;;;;4994692;28;20187;-89
2020/12/21 05:19:48;;;;;;;24.83;20.57;;;;;;;;;;4994188;28;20187;-89
2020/12/21 05:22:21;;;;;;;22.07;19.77;;;;;;;;;;4993344;28;20199;-89
2020/12/21 05:24:48;;;;;;;21.60;19.13;;;;;;;;;;4994464;28;20175;-89
2020/12/21 05:27:25;;;;;;;25.43;20.47;;;;;;;;;;4992787;28;20177;-89
2020/12/21 05:30:00;;;;;;;25.80;18.93;;;;;;;;;;4993379;28;20207;-89
2020/12/21 05:32:31;;;;;;;22.10;19.67;;;;;;;;;;4993226;28;20219;-89
2020/12/21 05:35:13;;;;;;;22.83;19.37;;;;;;;;;;4992800;28;20181;-89
2020/12/21 05:37:43;;;;;;;21.60;18.00;;;;;;;;;;4992852;28;20179;-89
2020/12/21 05:40:10;;;;;;;19.13;17.53;;;;;;;;;;4993786;28;20184;-89
2020/12/21 05:42:44;;;;;;;19.10;16.70;;;;;;;;;;4992806;28;20283;-89
2020/12/21 05:45:17;;;;;;;21.70;19.50;;;;;;;;;;4992764;28;20176;-90
2020/12/21 05:47:51;;;;;;;20.10;18.20;;;;;;;;;;4992889;28;20187;-89
2020/12/21 05:50:22;;;;;;;22.57;18.57;;;;;;;;;;4994260;28;20173;-89
2020/12/21 05:52:55;;;;;;;26.73;19.80;;;;;;;;;;4992828;28;20199;-89
2020/12/21 05:55:24;;;;;;;24.47;19.17;;;;;;;;;;4992654;28;20172;-89
2020/12/21 05:58:01;;;;;;;22.70;18.47;;;;;;;;;;4992488;28;20183;-89
2020/12/21 06:00:35;;;;;;;21.67;19.23;;;;;;;;;;4993872;28;20210;-89
2020/12/21 06:03:08;;;;;;;24.10;18.73;;;;;;;;;;4992562;28;20190;-89
2020/12/21 06:05:45;;;;;;;21.00;18.87;;;;;;;;;;4994133;28;20173;-89
2020/12/21 06:08:19;;;;;;;29.27;21.33;;;;;;;;;;4992748;28;20225;-89
2020/12/21 06:10:58;;;;;;;25.67;21.03;;;;;;;;;;4993807;28;20672;-89
2020/12/21 06:13:24;;;;;;;21.90;19.80;;;;;;;;;;4993943;28;20204;-89
2020/12/21 06:15:59;;;;;;;22.60;17.60;;;;;;;;;;4992494;28;20544;-89
2020/12/21 06:18:29;;;;;;;23.10;20.70;;;;;;;;;;4992734;28;20173;-89
2020/12/21 06:20:59;;;;;;;21.67;19.37;;;;;;;;;;4993686;28;20204;-89
2020/12/21 06:23:38;;;;;;;26.43;21.67;;;;;;;;;;4992291;28;20213;-89
2020/12/21 06:26:14;;;;;;;26.97;22.10;;;;;;;;;;4992898;28;20260;-89
2020/12/21 06:28:48;;;;;;;23.73;21.50;;;;;;;;;;4992408;28;20195;-89
2020/12/21 06:31:26;;;;;;;29.30;21.87;;;;;;;;;;4993004;28;20616;-89
2020/12/21 06:33:58;;;;;;;21.30;19.40;;;;;;;;;;4992669;28;20189;-89
2020/12/21 06:36:40;;;;;;;26.03;22.57;;;;;;;;;;4992268;28;20181;-89
2020/12/21 06:39:10;;;;;;;23.30;20.97;;;;;;;;;;4992368;28;20564;-89
2020/12/21 06:41:41;;;;;;;28.57;23.60;;;;;;;;;;4992405;28;20203;-89
2020/12/21 06:44:11;;;;;;;28.77;22.23;;;;;;;;;;4997189;28;20164;-89
2020/12/21 06:46:38;;;;;;;23.93;21.20;;;;;;;;;;4997218;28;20180;-89
2020/12/21 06:49:10;;;;;;;28.20;22.53;;;;;;;;;;4996719;28;20521;-89
2020/12/21 06:51:47;;;;;;;29.77;22.13;;;;;;;;;;4995805;28;20208;-89
2020/12/21 06:54:20;;;;;;;24.10;21.57;;;;;;;;;;4995939;28;20175;-89
2020/12/21 06:56:52;;;;;;;26.97;22.53;;;;;;;;;;4995594;28;20189;-89
2020/12/21 06:59:25;;;;;;;28.60;23.13;;;;;;;;;;4995429;28;20182;-89
2020/12/21 07:01:55;;;;;;;25.67;23.00;;;;;;;;;;4995690;28;20199;-90
2020/12/21 07:04:25;;;;;;;24.80;22.13;;;;;;;;;;4996572;28;20183;-89
2020/12/21 07:06:52;;;;;;;25.80;22.37;;;;;;;;;;4995537;28;20178;-90
2020/12/21 07:09:28;;;;;;;28.47;23.77;;;;;;;;;;4995593;28;20183;-89
2020/12/21 07:12:05;;;;;;;32.30;22.23;;;;;;;;;;4995591;28;20238;-89
2020/12/21 07:14:39;;;;;;;23.87;21.20;;;;;;;;;;4995784;28;20177;-89
2020/12/21 07:17:11;;;;;;;18.27;16.43;;;;;;;;;;4996814;28;20230;-89
2020/12/21 07:19:45;;;;;;;22.00;20.00;;;;;;;;;;4995363;28;20201;-89
2020/12/21 07:22:19;;;;;;;27.90;20.30;;;;;;;;;;4996525;28;20231;-89
2020/12/21 07:24:56;;;;;;;27.57;21.40;;;;;;;;;;4995745;28;20646;-89
2020/12/21 07:27:28;;;;;;;27.00;21.53;;;;;;;;;;4995198;28;20182;-89
2020/12/21 07:29:58;;;;;;;22.73;19.53;;;;;;;;;;4996631;28;20210;-89
2020/12/21 07:32:28;;;;;;;28.23;21.50;;;;;;;;;;4994811;28;20223;-89
2020/12/21 07:34:59;;;;;;;31.23;21.00;;;;;;;;;;4995415;28;20185;-89
2020/12/21 07:37:32;;;;;;;34.30;20.97;;;;;;;;;;4995021;28;20618;-89
2020/12/21 07:40:01;;;;;;;32.90;22.20;;;;;;;;;;4996191;28;20175;-89
2020/12/21 07:42:31;;;;;;;22.87;20.50;;;;;;;;;;4994737;28;20206;-89
2020/12/21 07:44:59;;;;;;;26.90;21.17;;;;;;;;;;4994821;28;20182;-89
2020/12/21 07:47:35;;;;;;;21.73;19.37;;;;;;;;;;4995963;28;20179;-89
2020/12/21 07:50:09;;;;;;;25.40;19.43;;;;;;;;;;4996608;28;20174;-89
2020/12/21 07:52:42;;;;;;;32.27;22.00;;;;;;;;;;4996049;28;20214;-89
2020/12/21 07:55:15;;;;;;;21.77;18.67;;;;;;;;;;4996224;28;20162;-89
2020/12/21 07:57:43;;;;;;;21.63;19.53;;;;;;;;;;4994689;28;20182;-89
2020/12/21 08:00:17;;;;;;;21.33;19.10;;;;;;;;;;4995828;28;20186;-90
2020/12/21 08:02:54;;;;;;;27.00;21.00;;;;;;;;;;4994761;28;20263;-89
2020/12/21 08:05:29;;;;;;;27.53;19.03;;;;;;;;;;4994478;28;20738;-89
2020/12/21 08:08:01;;;;;;;22.63;20.10;;;;;;;;;;4994607;28;20546;-89
2020/12/21 08:10:35;;;;;;;29.10;20.60;;;;;;;;;;4995345;28;20186;-88
2020/12/21 08:13:15;;;;;;;25.60;22.00;;;;;;;;;;4996719;28;20193;-88
2020/12/21 08:15:45;;;;;;;20.97;18.87;;;;;;;;;;4994994;28;20208;-88
2020/12/21 08:18:15;;;;;;;30.70;19.50;;;;;;;;;;4994940;28;20174;-89
2020/12/21 08:20:48;;;;;;;29.23;20.93;;;;;;;;;;4995604;28;20221;-87
2020/12/21 08:23:21;;;;;;;23.10;19.17;;;;;;;;;;4998993;28;20713;-88
2020/12/21 08:25:51;;;;;;;34.53;23.53;;;;;;;;;;4999118;28;20158;-87
2020/12/21 08:28:30;;;;;;;25.73;21.33;;;;;;;;;;4997465;28;20661;-87
2020/12/21 08:31:10;;;;;;;22.63;20.23;;;;;;;;;;4995913;28;20213;-87
2020/12/21 08:33:41;;;;;;;22.37;20.03;;;;;;;;;;4997744;28;20701;-87
2020/12/21 08:36:21;;;;;;;29.60;19.93;;;;;;;;;;4998527;28;20178;-87
2020/12/21 08:38:51;;;;;;;26.40;19.77;;;;;;;;;;4997637;28;20185;-87
2020/12/21 08:41:18;;;;;;;34.37;20.10;;;;;;;;;;4999192;28;20258;-87
2020/12/21 08:43:49;;;;;;;28.87;20.83;;;;;;;;;;4999465;28;20197;-87
2020/12/21 08:46:15;;;;;;;27.23;20.00;;;;;;;;;;4998399;28;20182;-87
2020/12/21 08:48:43;;;;;;;26.17;20.67;;;;;;;;;;4996423;28;20709;-88
2020/12/21 08:51:12;;;;;;;22.33;19.93;;;;;;;;;;4993395;28;20209;-88
2020/12/21 08:53:39;;;;;;;26.90;18.53;;;;;;;;;;4993661;28;20213;-88
2020/12/21 08:56:16;;;;;;;21.17;18.90;;;;;;;;;;4993516;28;20205;-88
2020/12/21 08:58:43;;;;;;;26.23;19.70;;;;;;;;;;4993640;28;20188;-88
2020/12/21 09:01:15;;;;;;;23.30;19.13;;;;;;;;;;4993606;28;20666;-88
2020/12/21 09:03:46;;;;;;;24.13;20.00;;;;;;;;;;4994914;28;20175;-88
2020/12/21 09:06:27;;;;;;;30.87;20.70;;;;;;;;;;4992886;28;20182;-88
2020/12/21 09:09:01;;;;;;;23.70;20.90;;;;;;;;;;4994750;28;20171;-88
2020/12/21 09:11:31;;;;;;;28.73;20.53;;;;;;;;;;4993310;28;20229;-88
2020/12/21 09:14:06;;;;;;;18.97;15.90;;;;;;;;;;4993153;28;20181;-88
2020/12/21 09:16:35;;;;;;;26.47;18.13;;;;;;;;;;4993302;28;20173;-88
2020/12/21 09:19:04;;;;;;;21.23;17.63;;;;;;;;;;4994315;28;20665;-88
2020/12/21 09:21:38;;;;;;;24.83;18.47;;;;;;;;;;4992872;28;20220;-88
2020/12/21 09:24:10;;;;;;;22.67;18.53;;;;;;;;;;4994141;28;20174;-88
2020/12/21 09:26:45;;;;;;;25.10;19.13;;;;;;;;;;4992954;28;20647;-88
2020/12/21 09:29:18;;;;;;;23.83;19.60;;;;;;;;;;4992979;28;20174;-88
2020/12/21 09:31:51;;;;;;;25.10;18.37;;;;;;;;;;4994971;28;20214;-88
2020/12/21 09:34:17;;;;;;;27.57;19.70;;;;;;;;;;4995532;28;20182;-88
2020/12/21 09:36:51;;;;;;;33.93;19.27;;;;;;;;;;4996988;28;20178;-88
2020/12/21 09:39:18;;;;;;;23.93;18.53;;;;;;;;;;4994791;28;20164;-88
2020/12/21 09:41:45;;;;;;;22.60;18.67;;;;;;;;;;4992819;28;20202;-88
2020/12/21 09:44:20;;;;;;;23.27;19.43;;;;;;;;;;4992797;28;20183;-88
2020/12/21 09:46:51;;;;;;;32.20;19.53;;;;;;;;;;4994230;28;20159;-88
2020/12/21 09:49:19;;;;;;;24.70;18.90;;;;;;;;;;4992964;28;20341;-88
2020/12/21 09:51:52;;;;;;;19.63;15.93;;;;;;;;;;4993027;28;20212;-88
2020/12/21 09:54:25;;;;;;;27.27;17.27;;;;;;;;;;4994252;28;20178;-89
2020/12/21 09:56:51;;;;;;;23.70;18.70;;;;;;;;;;4993545;28;20178;-88
2020/12/21 09:59:20;;;;;;;20.10;17.37;;;;;;;;;;4992975;28;20178;-88
2020/12/21 10:01:48;;;;;;;21.17;16.43;;;;;;;;;;4992727;28;20674;-88
2020/12/21 10:04:14;;;;;;;21.50;17.53;;;;;;;;;;4993851;28;20179;-89
2020/12/21 10:06:48;;;;;;;23.53;17.23;;;;;;;;;;4992752;28;20191;-88
2020/12/21 10:09:20;;;;;;;23.80;17.13;;;;;;;;;;4992748;28;20189;-88
2020/12/21 10:11:46;;;;;;;20.70;16.83;;;;;;;;;;4992463;28;20231;-88
2020/12/21 10:14:15;;;;;;;19.03;15.70;;;;;;;;;;4992680;28;20176;-88
2020/12/21 10:16:41;;;;;;;26.23;15.80;;;;;;;;;;4993711;28;20648;-87
2020/12/21 10:19:13;;;;;;;23.07;15.67;;;;;;;;;;4996293;28;20187;-88
2020/12/21 10:21:43;;;;;;;17.90;16.17;;;;;;;;;;4997376;28;20200;-88
2020/12/21 10:24:15;;;;;;;20.87;15.60;;;;;;;;;;4997498;28;20179;-88
2020/12/21 10:26:46;;;;;;;21.50;15.57;;;;;;;;;;4996402;28;20185;-88
2020/12/21 10:29:17;;;;;;;21.17;16.03;;;;;;;;;;4997330;28;20188;-89
2020/12/21 10:31:43;;;;;;;18.97;17.03;;;;;;;;;;4996165;28;20224;-88
2020/12/21 10:34:09;;;;;;;17.53;15.70;;;;;;;;;;4996384;28;20768;-88
2020/12/21 10:36:44;;;;;;;16.87;15.47;;;;;;;;;;4995974;28;20187;-88
2020/12/21 10:39:20;;;;;;;17.63;15.77;;;;;;;;;;4997463;28;20195;-88
2020/12/21 10:41:47;;;;;;;18.53;16.93;;;;;;;;;;4997198;28;20204;-88
2020/12/21 10:44:21;;;;;;;18.23;16.50;;;;;;;;;;4997080;28;20211;-88
2020/12/21 10:46:52;;;;;;;21.30;16.13;;;;;;;;;;4995913;28;20271;-88
2020/12/21 10:49:18;;;;;;;14.90;13.07;;;;;;;;;;4995924;28;20176;-88
2020/12/21 10:51:55;;;;;;;17.53;15.77;;;;;;;;;;4995620;28;20220;-88
2020/12/21 10:54:28;;;;;;;15.20;14.17;;;;;;;;;;4995828;28;20672;-88
2020/12/21 10:57:04;;;;;;;16.27;14.90;;;;;;;;;;4996776;28;20204;-88
2020/12/21 10:59:42;;;;;;;18.97;14.67;;;;;;;;;;4996826;28;20234;-88
2020/12/21 11:02:15;;;;;;;14.60;13.13;;;;;;;;;;4996872;28;20196;-88
2020/12/21 11:04:48;;;;;;;16.33;14.67;;;;;;;;;;4995484;28;20181;-88
2020/12/21 11:07:18;;;;;;;13.40;12.40;;;;;;;;;;4996813;28;20715;-88
2020/12/21 11:09:54;;;;;;;18.77;14.50;;;;;;;;;;4995533;28;20178;-88
2020/12/21 11:12:29;;;;;;;15.63;13.50;;;;;;;;;;4996481;28;20207;-89
2020/12/21 11:15:01;;;;;;;14.93;13.50;;;;;;;;;;4995614;28;20178;-88
2020/12/21 11:17:31;;;;;;;15.50;13.73;;;;;;;;;;4995372;28;20182;-88
2020/12/21 11:20:02;;;;;;;15.83;12.97;;;;;;;;;;4995632;28;20605;-88
2020/12/21 11:22:34;;;;;;;13.93;12.60;;;;;;;;;;4995143;28;20214;-88
2020/12/21 11:25:03;;;;;;;12.40;11.23;;;;;;;;;;4995191;28;20182;-89
2020/12/21 11:27:35;;;;;;;12.57;11.43;;;;;;;;;;4995042;28;20181;-88
2020/12/21 11:30:11;;;;;;;13.07;10.97;;;;;;;;;;4996519;28;20191;-88
2020/12/21 11:32:45;;;;;;;13.20;11.10;;;;;;;;;;4995170;28;20576;-88
2020/12/21 11:35:17;;;;;;;11.20;10.30;;;;;;;;;;4994985;28;20261;-88
2020/12/21 11:37:48;;;;;;;12.60;10.63;;;;;;;;;;4994966;28;20174;-88
2020/12/21 11:40:14;;;;;;;13.03;10.63;;;;;;;;;;4995455;28;20590;-87
2020/12/21 11:42:46;;;;;;;14.00;10.87;;;;;;;;;;4995771;28;20182;-88
2020/12/21 11:45:16;;;;;;;11.67;10.40;;;;;;;;;;4994754;28;20186;-88
2020/12/21 11:47:46;;;;;;;10.43;9.20;;;;;;;;;;4995955;28;20181;-88
2020/12/21 11:50:18;;;;;;;11.30;9.83;;;;;;;;;;4996010;28;20677;-88
2020/12/21 11:52:44;;;;;;;12.30;9.87;;;;;;;;;;4994916;28;20209;-88
2020/12/21 11:55:11;;;;;;;11.40;9.17;;;;;;;;;;4994652;28;20174;-88
2020/12/21 11:57:37;;;;;;;11.13;9.57;;;;;;;;;;4994633;28;20181;-88
2020/12/21 12:00:09;;;;;;;12.77;9.50;;;;;;;;;;4995755;28;20175;-88
2020/12/21 12:02:36;;;;;;;16.30;10.20;;;;;;;;;;4994354;28;20214;-88
2020/12/21 12:05:04;;;;;;;21.13;9.80;;;;;;;;;;4994489;28;20182;-88
2020/12/21 12:07:39;;;;;;;9.70;8.70;;;;;;;;;;4995684;28;20632;-88
2020/12/21 12:10:06;;;;;;;9.00;8.10;;;;;;;;;;4995030;28;20591;-88
2020/12/21 12:12:32;;;;;;;14.57;10.00;;;;;;;;;;4994193;28;20582;-88
2020/12/21 12:15:01;;;;;;;10.37;8.03;;;;;;;;;;4994300;28;20548;-88
2020/12/21 12:17:34;;;;;;;13.63;9.47;;;;;;;;;;4994152;28;20189;-89
2020/12/21 12:20:10;;;;;;;13.70;9.33;;;;;;;;;;4995394;28;20650;-88
2020/12/21 12:22:41;;;;;;;9.13;7.63;;;;;;;;;;4994085;28;20658;-88
2020/12/21 12:25:14;;;;;;;10.33;8.33;;;;;;;;;;4994337;28;20272;-88
2020/12/21 12:27:45;;;;;;;8.10;7.37;;;;;;;;;;4994094;28;20178;-88
2020/12/21 12:30:18;;;;;;;10.93;7.00;;;;;;;;;;4994210;28;20272;-89
2020/12/21 12:32:49;;;;;;;11.63;8.10;;;;;;;;;;4994336;28;20226;-89
2020/12/21 12:35:21;;;;;;;9.37;8.17;;;;;;;;;;4994181;28;20525;-89
2020/12/21 12:37:51;;;;;;;9.00;8.07;;;;;;;;;;4994266;28;20229;-89
2020/12/21 12:40:21;;;;;;;19.33;9.70;;;;;;;;;;4993176;28;20229;-89
2020/12/21 12:42:52;;;;;;;14.40;9.27;;;;;;;;;;4993846;28;20188;-89
2020/12/21 12:45:24;;;;;;;10.93;9.80;;;;;;;;;;4993680;28;20186;-89
2020/12/21 12:47:52;;;;;;;12.63;9.73;;;;;;;;;;4993823;28;20182;-89
2020/12/21 12:50:24;;;;;;;10.53;9.60;;;;;;;;;;4993671;28;20244;-89
2020/12/21 12:52:59;;;;;;;11.83;9.67;;;;;;;;;;4993851;28;20582;-89
2020/12/21 12:55:36;;;;;;;11.63;10.17;;;;;;;;;;4994705;28;20178;-89
2020/12/21 12:58:08;;;;;;;15.93;10.57;;;;;;;;;;4993363;28;20190;-89
2020/12/21 13:00:40;;;;;;;11.53;10.37;;;;;;;;;;4994858;28;20167;-89
2020/12/21 13:03:14;;;;;;;14.97;11.07;;;;;;;;;;4993430;28;20232;-89
2020/12/21 13:05:47;;;;;;;13.23;10.33;;;;;;;;;;4994583;28;20184;-89
2020/12/21 13:08:19;;;;;;;11.87;10.03;;;;;;;;;;4994485;28;20192;-90
2020/12/21 13:10:55;;;;;;;14.43;10.93;;;;;;;;;;4993124;28;20202;-89
2020/12/21 13:13:28;;;;;;;13.67;11.00;;;;;;;;;;4994458;28;20198;-89
2020/12/21 13:16:01;;;;;;;14.60;11.27;;;;;;;;;;4993136;28;20182;-90
2020/12/21 13:18:36;;;;;;;12.37;10.37;;;;;;;;;;4994294;28;20173;-89
2020/12/21 13:21:06;;;;;;;11.37;10.37;;;;;;;;;;4994399;28;20189;-89
2020/12/21 13:23:38;;;;;;;15.80;11.20;;;;;;;;;;4992954;28;20186;-89
2020/12/21 13:26:10;;;;;;;15.37;11.10;;;;;;;;;;4992891;28;20181;-90
2020/12/21 13:28:41;;;;;;;14.10;10.83;;;;;;;;;;4994214;28;20181;-89
2020/12/21 13:31:15;;;;;;;15.10;10.40;;;;;;;;;;4992803;28;20222;-89
2020/12/21 13:33:41;;;;;;;12.20;11.00;;;;;;;;;;4994091;28;20202;-89
2020/12/21 13:36:14;;;;;;;12.60;11.10;;;;;;;;;;4994081;28;20664;-89
2020/12/21 13:38:45;;;;;;;17.83;11.03;;;;;;;;;;4992742;28;20182;-89
2020/12/21 13:41:15;;;;;;;12.20;10.93;;;;;;;;;;4992738;28;20741;-89
2020/12/21 13:43:47;;;;;;;13.23;10.73;;;;;;;;;;4992638;28;20174;-89
2020/12/21 13:46:19;;;;;;;18.73;11.50;;;;;;;;;;4992641;28;20186;-89
2020/12/21 13:48:50;;;;;;;16.30;11.07;;;;;;;;;;4992700;28;20178;-89
2020/12/21 13:51:25;;;;;;;15.37;11.83;;;;;;;;;;4993303;28;20201;-89
2020/12/21 13:53:58;;;;;;;15.53;10.93;;;;;;;;;;4992618;28;20646;-89
2020/12/21 13:56:26;;;;;;;17.63;11.20;;;;;;;;;;4993777;28;20257;-89
2020/12/21 13:58:52;;;;;;;12.57;11.30;;;;;;;;;;4992629;28;20174;-89
2020/12/21 14:01:23;;;;;;;12.30;11.17;;;;;;;;;;4992394;28;20682;-88
2020/12/21 14:03:55;;;;;;;12.33;10.87;;;;;;;;;;4992441;28;20174;-88
2020/12/21 14:06:27;;;;;;;12.17;10.87;;;;;;;;;;4993580;28;20186;-89
2020/12/21 14:09:01;;;;;;;13.87;10.87;;;;;;;;;;4994061;28;20167;-88
2020/12/21 14:11:32;;;;;;;11.80;10.63;;;;;;;;;;4992432;28;20222;-89
2020/12/21 14:14:03;;;;;;;13.03;11.73;;;;;;;;;;4992488;28;20551;-89
2020/12/21 14:16:31;;;;;;;18.40;11.67;;;;;;;;;;4993167;28;20638;-88
2020/12/21 14:19:06;;;;;;;13.17;11.50;;;;;;;;;;4993746;28;20224;-89
2020/12/21 14:21:41;;;;;;;13.37;10.97;;;;;;;;;;4993705;28;20280;-88
2020/12/21 14:24:08;;;;;;;13.23;11.33;;;;;;;;;;4992459;28;20257;-90
2020/12/21 14:26:38;;;;;;;12.50;11.07;;;;;;;;;;4992332;28;20253;-90
2020/12/21 14:29:05;;;;;;;16.73;11.77;;;;;;;;;;4993582;28;20181;-90
2020/12/21 14:31:37;;;;;;;15.93;11.50;;;;;;;;;;4993727;28;20220;-90
2020/12/21 14:34:04;;;;;;;15.07;11.33;;;;;;;;;;4992660;28;20263;-90
2020/12/21 14:36:31;;;;;;;13.03;11.40;;;;;;;;;;4992411;28;20186;-90
2020/12/21 14:38:59;;;;;;;13.37;10.50;;;;;;;;;;4992630;28;20184;-89
2020/12/21 14:41:25;;;;;;;14.73;11.00;;;;;;;;;;4992170;28;20198;-91